createdAt,value
2018-01-20T00:00:31.777Z,100434.72
2018-01-20T00:03:05.312Z,100436.81
2018-01-20T00:05:35.263Z,100432.73
2018-01-20T00:08:05.155Z,100434.76
2018-01-20T00:10:46.990Z,100435.42
2018-01-20T00:13:16.751Z,100430.34
2018-01-20T00:15:47.134Z,100437.30
2018-01-20T00:18:16.669Z,100439.41
2018-01-20T00:20:46.647Z,100437.95
2018-01-20T00:23:16.952Z,100438.75
2018-01-20T00:25:52.872Z,100441.95
2018-01-20T00:28:22.641Z,100435.22
2018-01-20T00:30:52.255Z,100431.59
2018-01-20T00:33:22.721Z,100433.05
2018-01-20T00:35:51.885Z,100424.47
2018-01-20T00:38:21.367Z,100432.80
2018-01-20T00:40:55.020Z,100426.06
2018-01-20T00:43:28.677Z,100423.09
2018-01-20T00:46:02.942Z,100425.56
2018-01-20T00:48:32.505Z,100420.36
2018-01-20T00:51:02.068Z,100414.58
2018-01-20T00:53:31.241Z,100421.03
2018-01-20T00:56:00.951Z,100405.59
2018-01-20T00:58:30.046Z,100412.38
2018-01-20T01:00:59.412Z,100411.74
2018-01-20T01:03:27.901Z,100412.30
2018-01-20T01:05:57.356Z,100415.16
2018-01-20T01:08:25.643Z,100411.68
2018-01-20T01:10:54.131Z,100408.33
2018-01-20T01:13:23.052Z,100408.63
2018-01-20T01:15:51.632Z,100408.42
2018-01-20T01:18:19.899Z,100407.97
2018-01-20T01:20:48.180Z,100394.74
2018-01-20T01:23:16.455Z,100403.05
2018-01-20T01:25:45.252Z,100393.52
2018-01-20T01:28:13.523Z,100405.61
2018-01-20T01:30:41.841Z,100393.67
2018-01-20T01:33:10.139Z,100389.98
2018-01-20T01:35:38.586Z,100397.17
2018-01-20T01:38:06.844Z,100396.31
2018-01-20T01:40:35.164Z,100391.30
2018-01-20T01:43:03.437Z,100393.25
2018-01-20T01:45:31.739Z,100396.36
2018-01-20T01:48:00.029Z,100389.38
2018-01-20T01:50:28.324Z,100385.82
2018-01-20T01:52:56.679Z,100395.72
2018-01-20T01:55:24.944Z,100397.27
2018-01-20T01:57:54.099Z,100398.16
2018-01-20T02:00:22.372Z,100392.22
2018-01-20T02:02:50.664Z,100395.75
2018-01-20T02:05:18.954Z,100392.13
2018-01-20T02:07:50.304Z,100399.66
2018-01-20T02:10:18.772Z,100407.11
2018-01-20T02:12:50.140Z,100406.29
2018-01-20T02:15:18.416Z,100398.45
2018-01-20T02:17:53.448Z,100410.52
2018-01-20T02:20:21.746Z,100413.69
2018-01-20T02:22:51.085Z,100407.13
2018-01-20T02:25:19.861Z,100407.50
2018-01-20T02:27:51.677Z,100407.69
2018-01-20T02:30:19.981Z,100402.36
2018-01-20T02:32:52.116Z,100401.66
2018-01-20T02:35:20.436Z,100393.71
2018-01-20T02:37:50.475Z,100387.55
2018-01-20T02:40:18.760Z,100396.45
2018-01-20T02:42:50.305Z,100396.45
2018-01-20T02:45:18.585Z,100397.02
2018-01-20T02:47:51.877Z,100397.97
2018-01-20T02:50:20.168Z,100396.66
2018-01-20T02:52:52.104Z,100394.26
2018-01-20T02:55:20.400Z,100385.95
2018-01-20T02:57:50.306Z,100387.11
2018-01-20T03:00:18.655Z,100390.18
2018-01-20T03:02:50.329Z,100382.41
2018-01-20T03:05:19.139Z,100382.55
2018-01-20T03:07:51.236Z,100373.96
2018-01-20T03:10:19.830Z,100377.56
2018-01-20T03:12:51.852Z,100374.61
2018-01-20T03:15:20.128Z,100373.80
2018-01-20T03:17:51.954Z,100368.38
2018-01-20T03:20:20.344Z,100372.30
2018-01-20T03:22:53.370Z,100361.03
2018-01-20T03:25:21.637Z,100359.00
2018-01-20T03:27:50.918Z,100363.44
2018-01-20T03:30:19.191Z,100355.13
2018-01-20T03:32:50.542Z,100346.02
2018-01-20T03:35:18.824Z,100345.63
2018-01-20T03:37:50.856Z,100342.34
2018-01-20T03:40:19.383Z,100341.48
2018-01-20T03:42:50.739Z,100333.30
2018-01-20T03:45:19.208Z,100339.66
2018-01-20T03:47:51.021Z,100338.53
2018-01-20T03:50:19.318Z,100335.16
2018-01-20T03:52:50.268Z,100335.00
2018-01-20T03:55:18.760Z,100328.87
2018-01-20T03:57:53.859Z,100323.97
2018-01-20T04:00:22.145Z,100328.61
2018-01-20T04:02:50.443Z,100317.46
2018-01-20T04:05:19.117Z,100313.38
2018-01-20T04:07:51.452Z,100315.37
2018-01-20T04:10:19.721Z,100310.37
2018-01-20T04:12:51.548Z,100312.83
2018-01-20T04:15:19.828Z,100301.77
2018-01-20T04:17:52.066Z,100314.74
2018-01-20T04:20:20.352Z,100307.25
2018-01-20T04:22:50.676Z,100302.39
2018-01-20T04:25:18.977Z,100292.09
2018-01-20T04:27:50.286Z,100293.09
2018-01-20T04:30:18.586Z,100294.88
2018-01-20T04:32:50.152Z,100295.09
2018-01-20T04:35:18.455Z,100293.16
2018-01-20T04:37:49.829Z,100285.17
2018-01-20T04:40:18.138Z,100294.83
2018-01-20T04:42:49.711Z,100292.54
2018-01-20T04:45:17.993Z,100289.20
2018-01-20T04:47:52.792Z,100282.23
2018-01-20T04:50:21.074Z,100277.66
2018-01-20T04:52:50.472Z,100287.80
2018-01-20T04:55:18.780Z,100280.64
2018-01-20T04:57:53.943Z,100282.16
2018-01-20T05:00:22.213Z,100283.29
2018-01-20T05:02:50.508Z,100277.51
2018-01-20T05:05:19.864Z,100285.45
2018-01-20T05:07:51.333Z,100271.66
2018-01-20T05:10:19.665Z,100276.41
2018-01-20T05:12:51.611Z,100275.53
2018-01-20T05:15:19.893Z,100277.59
2018-01-20T05:17:52.072Z,100277.36
2018-01-20T05:20:20.372Z,100275.95
2018-01-20T05:22:50.628Z,100271.12
2018-01-20T05:25:19.277Z,100267.80
2018-01-20T05:27:51.222Z,100259.98
2018-01-20T05:30:19.511Z,100264.09
2018-01-20T05:32:51.585Z,100262.30
2018-01-20T05:35:19.874Z,100255.69
2018-01-20T05:37:51.765Z,100247.31
2018-01-20T05:40:20.033Z,100252.03
2018-01-20T05:42:51.362Z,100254.92
2018-01-20T05:45:19.986Z,100257.44
2018-01-20T05:47:51.812Z,100253.27
2018-01-20T05:50:20.393Z,100253.53
2018-01-20T05:52:50.437Z,100246.73
2018-01-20T05:55:18.728Z,100247.61
2018-01-20T05:57:52.125Z,100240.50
2018-01-20T06:00:20.420Z,100246.26
2018-01-20T06:02:52.259Z,100239.92
2018-01-20T06:05:20.848Z,100248.92
2018-01-20T06:07:56.661Z,100248.42
2018-01-20T06:10:24.956Z,100244.84
2018-01-20T06:12:53.233Z,100244.56
2018-01-20T06:15:21.870Z,100242.38
2018-01-20T06:17:50.778Z,100232.23
2018-01-20T06:20:19.076Z,100231.12
2018-01-20T06:22:51.433Z,100234.01
2018-01-20T06:25:19.956Z,100231.45
2018-01-20T06:27:52.052Z,100237.09
2018-01-20T06:30:20.373Z,100232.08
2018-01-20T06:32:51.099Z,100229.21
2018-01-20T06:35:19.513Z,100227.42
2018-01-20T06:37:50.940Z,100225.62
2018-01-20T06:40:20.035Z,100228.22
2018-01-20T06:42:52.192Z,100220.13
2018-01-20T06:45:20.615Z,100219.13
2018-01-20T06:47:51.846Z,100210.44
2018-01-20T06:50:20.462Z,100212.53
2018-01-20T06:52:51.320Z,100214.41
2018-01-20T06:55:20.136Z,100213.52
2018-01-20T06:57:52.156Z,100210.55
2018-01-20T07:00:20.522Z,100216.41
2018-01-20T07:02:50.411Z,100212.27
2018-01-20T07:05:18.692Z,100203.22
2018-01-20T07:07:52.707Z,100206.01
2018-01-20T07:10:20.974Z,100200.23
2018-01-20T07:12:50.604Z,100195.33
2018-01-20T07:15:18.885Z,100197.98
2018-01-20T07:17:53.800Z,100200.08
2018-01-20T07:20:22.076Z,100196.41
2018-01-20T07:22:50.432Z,100192.53
2018-01-20T07:25:18.709Z,100192.30
2018-01-20T07:27:50.296Z,100196.58
2018-01-20T07:30:18.616Z,100188.83
2018-01-20T07:32:51.229Z,100192.70
2018-01-20T07:35:19.509Z,100189.66
2018-01-20T07:37:50.738Z,100190.22
2018-01-20T07:40:19.021Z,100191.97
2018-01-20T07:42:53.056Z,100192.63
2018-01-20T07:45:21.877Z,100178.38
2018-01-20T07:47:50.705Z,100178.44
2018-01-20T07:50:19.028Z,100176.80
2018-01-20T07:52:50.480Z,100167.14
2018-01-20T07:55:18.839Z,100173.46
2018-01-20T07:57:53.879Z,100166.66
2018-01-20T08:00:22.227Z,100167.99
2018-01-20T08:02:50.490Z,100161.55
2018-01-20T08:05:18.774Z,100160.82
2018-01-20T08:07:50.261Z,100159.02
2018-01-20T08:10:18.532Z,100147.48
2018-01-20T08:12:53.449Z,100150.92
2018-01-20T08:15:21.740Z,100150.54
2018-01-20T08:17:51.339Z,100148.83
2018-01-20T08:20:19.613Z,100148.23
2018-01-20T08:22:51.711Z,100134.41
2018-01-20T08:25:19.972Z,100132.58
2018-01-20T08:27:51.589Z,100125.34
2018-01-20T08:30:20.545Z,100118.16
2018-01-20T08:32:51.960Z,100114.67
2018-01-20T08:35:20.248Z,100117.95
2018-01-20T08:37:52.395Z,100125.78
2018-01-20T08:40:20.661Z,100117.33
2018-01-20T08:42:52.163Z,100116.08
2018-01-20T08:45:20.439Z,100115.41
2018-01-20T08:47:50.461Z,100105.77
2018-01-20T08:50:19.448Z,100105.16
2018-01-20T08:52:51.227Z,100093.53
2018-01-20T08:55:19.632Z,100098.09
2018-01-20T08:57:51.660Z,100086.11
2018-01-20T09:00:19.972Z,100086.00
2018-01-20T09:02:52.201Z,100086.95
2018-01-20T09:05:21.235Z,100078.50
2018-01-20T09:07:50.663Z,100072.57
2018-01-20T09:10:18.952Z,100067.48
2018-01-20T09:12:50.325Z,100060.56
2018-01-20T09:15:18.640Z,100062.48
2018-01-20T09:17:50.752Z,100054.06
2018-01-20T09:20:19.060Z,100053.53
2018-01-20T09:22:50.537Z,100047.69
2018-01-20T09:25:18.860Z,100047.66
2018-01-20T09:27:50.876Z,100042.69
2018-01-20T09:30:19.347Z,100031.05
2018-01-20T09:32:51.911Z,100036.30
2018-01-20T09:35:20.520Z,100029.14
2018-01-20T09:37:49.642Z,100029.10
2018-01-20T09:40:17.897Z,100035.91
2018-01-20T09:42:53.054Z,100020.88
2018-01-20T09:45:21.366Z,100015.06
2018-01-20T09:47:49.660Z,100008.92
2018-01-20T09:50:18.865Z,100007.72
2018-01-20T09:52:50.864Z,100010.77
2018-01-20T09:55:19.148Z,100001.58
2018-01-20T09:57:51.614Z,99998.89
2018-01-20T10:00:20.129Z,100004.98
2018-01-20T10:02:49.861Z,99989.87
2018-01-20T10:05:18.136Z,99991.03
2018-01-20T10:07:53.321Z,99987.00
2018-01-20T10:10:21.597Z,99984.60
2018-01-20T10:12:49.904Z,99985.50
2018-01-20T10:15:18.420Z,99973.49
2018-01-20T10:17:50.068Z,99965.64
2018-01-20T10:20:18.365Z,99961.99
2018-01-20T10:22:52.422Z,99956.20
2018-01-20T10:25:21.303Z,99951.42
2018-01-20T10:27:49.983Z,99946.95
2018-01-20T10:30:18.524Z,99949.47
2018-01-20T10:32:51.560Z,99946.78
2018-01-20T10:35:19.851Z,99946.23
2018-01-20T10:37:49.901Z,99949.72
2018-01-20T10:40:18.184Z,99937.05
2018-01-20T10:42:49.660Z,99925.88
2018-01-20T10:45:17.963Z,99930.78
2018-01-20T10:47:53.052Z,99919.61
2018-01-20T10:50:21.379Z,99911.48
2018-01-20T10:52:51.317Z,99907.80
2018-01-20T10:55:19.704Z,99900.78
2018-01-20T10:57:51.126Z,99894.89
2018-01-20T11:00:19.423Z,99887.55
2018-01-20T11:02:50.426Z,99882.34
2018-01-20T11:05:18.934Z,99878.81
2018-01-20T11:07:50.000Z,99872.80
2018-01-20T11:10:18.264Z,99862.67
2018-01-20T11:12:53.293Z,99856.74
2018-01-20T11:15:21.558Z,99850.72
2018-01-20T11:17:50.595Z,99848.52
2018-01-20T11:20:18.860Z,99833.05
2018-01-20T11:22:50.996Z,99843.13
2018-01-20T11:25:20.437Z,99828.27
2018-01-20T11:27:51.685Z,99826.48
2018-01-20T11:30:19.982Z,99815.89
2018-01-20T11:32:49.987Z,99811.45
2018-01-20T11:35:18.283Z,99808.06
2018-01-20T11:37:53.688Z,99803.97
2018-01-20T11:40:22.161Z,99795.97
2018-01-20T11:42:50.438Z,99800.06
2018-01-20T11:45:18.729Z,99793.69
2018-01-20T11:47:50.136Z,99784.41
2018-01-20T11:50:18.436Z,99782.02
2018-01-20T11:52:52.454Z,99773.40
2018-01-20T11:55:20.736Z,99763.79
2018-01-20T11:57:50.219Z,99760.92
2018-01-20T12:00:18.572Z,99752.19
2018-01-20T12:02:50.708Z,99742.73
2018-01-20T12:05:19.014Z,99732.35
2018-01-20T12:07:51.582Z,99731.76
2018-01-20T12:10:19.852Z,99723.30
2018-01-20T12:12:51.568Z,99721.41
2018-01-20T12:15:20.184Z,99717.79
2018-01-20T12:17:50.150Z,99712.58
2018-01-20T12:20:18.431Z,99711.41
2018-01-20T12:22:49.876Z,99698.52
2018-01-20T12:25:18.158Z,99676.20
2018-01-20T12:27:49.704Z,99665.67
2018-01-20T12:30:17.961Z,99671.88
2018-01-20T12:32:49.465Z,99660.19
2018-01-20T12:35:17.724Z,99655.54
2018-01-20T12:37:49.148Z,99651.52
2018-01-20T12:40:17.553Z,99637.84
2018-01-20T12:42:52.829Z,99635.32
2018-01-20T12:45:21.104Z,99636.37
2018-01-20T12:47:50.029Z,99623.78
2018-01-20T12:50:18.314Z,99615.45
2018-01-20T12:52:53.196Z,99606.42
2018-01-20T12:55:21.616Z,99605.58
2018-01-20T12:57:49.907Z,99605.42
2018-01-20T13:00:18.184Z,99604.98
2018-01-20T13:02:53.458Z,99596.97
2018-01-20T13:05:21.922Z,99590.09
2018-01-20T13:07:50.541Z,99585.46
2018-01-20T13:10:18.825Z,99579.03
2018-01-20T13:12:50.068Z,99581.27
2018-01-20T13:15:18.369Z,99570.75
2018-01-20T13:17:53.262Z,99571.32
2018-01-20T13:20:21.706Z,99566.98
2018-01-20T13:22:49.964Z,99555.63
2018-01-20T13:25:18.267Z,99550.86
2018-01-20T13:27:53.324Z,99545.90
2018-01-20T13:30:21.597Z,99537.55
2018-01-20T13:32:49.920Z,99527.19
2018-01-20T13:35:18.244Z,99514.68
2018-01-20T13:37:50.282Z,99520.05
2018-01-20T13:40:19.008Z,99510.18
2018-01-20T13:42:51.003Z,99508.30
2018-01-20T13:45:19.251Z,99500.80
2018-01-20T13:47:50.540Z,99498.91
2018-01-20T13:50:18.899Z,99493.16
2018-01-20T13:52:51.296Z,99485.66
2018-01-20T13:55:19.616Z,99490.81
2018-01-20T13:57:51.428Z,99491.55
2018-01-20T14:00:20.572Z,99482.25
2018-01-20T14:02:52.080Z,99472.38
2018-01-20T14:05:20.361Z,99478.14
2018-01-20T14:07:50.429Z,99471.62
2018-01-20T14:10:18.712Z,99465.03
2018-01-20T14:12:50.148Z,99452.97
2018-01-20T14:15:18.424Z,99457.25
2018-01-20T14:17:52.484Z,99452.19
2018-01-20T14:20:20.763Z,99445.44
2018-01-20T14:22:50.509Z,99446.76
2018-01-20T14:25:18.902Z,99447.68
2018-01-20T14:27:50.909Z,99441.14
2018-01-20T14:30:19.392Z,99446.15
2018-01-20T14:32:51.087Z,99443.38
2018-01-20T14:35:20.080Z,99433.88
2018-01-20T14:37:51.503Z,99428.11
2018-01-20T14:40:19.773Z,99423.56
2018-01-20T14:42:51.746Z,99424.06
2018-01-20T14:45:20.018Z,99421.09
2018-01-20T14:47:49.848Z,99419.73
2018-01-20T14:50:18.399Z,99418.82
2018-01-20T14:52:49.808Z,99429.87
2018-01-20T14:55:18.338Z,99416.66
2018-01-20T14:57:50.758Z,99418.32
2018-01-20T15:00:19.032Z,99410.42
2018-01-20T15:02:50.746Z,99408.91
2018-01-20T15:05:19.210Z,99408.34
2018-01-20T15:07:51.094Z,99403.13
2018-01-20T15:10:19.373Z,99403.89
2018-01-20T15:12:51.483Z,99401.86
2018-01-20T15:15:19.959Z,99397.86
2018-01-20T15:17:53.207Z,99398.67
2018-01-20T15:20:21.505Z,99388.27
2018-01-20T15:22:50.407Z,99390.07
2018-01-20T15:25:18.663Z,99385.14
2018-01-20T15:27:50.080Z,99384.73
2018-01-20T15:30:18.884Z,99379.89
2018-01-20T15:32:50.869Z,99374.44
2018-01-20T15:35:19.421Z,99374.31
2018-01-20T15:37:51.844Z,99368.38
2018-01-20T15:40:20.119Z,99363.64
2018-01-20T15:42:50.374Z,99369.69
2018-01-20T15:45:18.650Z,99362.14
2018-01-20T15:47:50.846Z,99358.91
2018-01-20T15:50:19.232Z,99352.78
2018-01-20T15:52:51.208Z,99351.70
2018-01-20T15:55:19.488Z,99358.25
2018-01-20T15:57:50.683Z,99346.80
2018-01-20T16:00:18.955Z,99346.69
2018-01-20T16:02:50.942Z,99339.78
2018-01-20T16:05:19.227Z,99335.39
2018-01-20T16:07:49.824Z,99337.54
2018-01-20T16:10:18.126Z,99333.40
2018-01-20T16:12:52.141Z,99325.54
2018-01-20T16:15:20.409Z,99330.25
2018-01-20T16:17:50.582Z,99323.85
2018-01-20T16:20:19.028Z,99324.73
2018-01-20T16:22:50.943Z,99315.91
2018-01-20T16:25:19.206Z,99314.25
2018-01-20T16:27:50.569Z,99299.69
2018-01-20T16:30:19.821Z,99298.00
2018-01-20T16:32:51.652Z,99297.86
2018-01-20T16:35:20.011Z,99291.55
2018-01-20T16:37:49.897Z,99299.71
2018-01-20T16:40:18.449Z,99295.86
2018-01-20T16:42:49.876Z,99306.41
2018-01-20T16:45:18.149Z,99306.60
2018-01-20T16:47:49.746Z,99306.79
2018-01-20T16:50:18.031Z,99303.21
2018-01-20T16:52:49.760Z,99302.02
2018-01-20T16:55:18.025Z,99297.05
2018-01-20T16:57:49.357Z,99308.11
2018-01-20T17:00:17.618Z,99313.00
2018-01-20T17:02:52.253Z,99326.44
2018-01-20T17:05:20.521Z,99325.39
2018-01-20T17:07:50.480Z,99320.89
2018-01-20T17:10:18.802Z,99321.34
2018-01-20T17:12:50.695Z,99323.20
2018-01-20T17:15:19.341Z,99331.70
2018-01-20T17:17:51.244Z,99326.59
2018-01-20T17:20:19.853Z,99325.77
2018-01-20T17:22:51.655Z,99337.35
2018-01-20T17:25:20.182Z,99326.43
2018-01-20T17:27:49.981Z,99325.47
2018-01-20T17:30:18.264Z,99339.45
2018-01-20T17:32:49.907Z,99341.76
2018-01-20T17:35:18.208Z,99332.36
2018-01-20T17:37:49.652Z,99340.59
2018-01-20T17:40:17.945Z,99338.09
2018-01-20T17:42:49.464Z,99328.12
2018-01-20T17:45:18.336Z,99330.20
2018-01-20T17:47:53.365Z,99330.20
2018-01-20T17:50:21.620Z,99322.55
2018-01-20T17:52:50.161Z,99314.76
2018-01-20T17:55:18.464Z,99317.89
2018-01-20T17:57:49.852Z,99321.58
2018-01-20T18:00:18.154Z,99313.33
2018-01-20T18:02:49.645Z,99314.86
2018-01-20T18:05:17.918Z,99318.06
2018-01-20T18:07:52.901Z,99318.34
2018-01-20T18:10:21.196Z,99325.35
2018-01-20T18:12:50.010Z,99324.58
2018-01-20T18:15:18.290Z,99323.09
2018-01-20T18:17:51.029Z,99325.08
2018-01-20T18:20:19.347Z,99339.09
2018-01-20T18:22:50.966Z,99346.20
2018-01-20T18:25:20.103Z,99343.77
2018-01-20T18:27:53.428Z,99355.19
2018-01-20T18:30:23.160Z,99361.16
2018-01-20T18:32:53.577Z,99355.33
2018-01-20T18:35:23.823Z,99356.77
2018-01-20T18:37:54.513Z,99358.73
2018-01-20T18:40:24.592Z,99352.44
2018-01-20T18:42:54.962Z,99349.51
2018-01-20T18:45:25.236Z,99355.44
2018-01-20T18:47:55.268Z,99355.63
2018-01-20T18:50:26.632Z,99360.37
2018-01-20T18:52:57.417Z,99369.06
2018-01-20T18:55:27.537Z,99362.83
2018-01-20T18:57:57.670Z,99360.81
2018-01-20T19:00:28.453Z,99357.22
2018-01-20T19:02:59.857Z,99357.98
2018-01-20T19:05:29.868Z,99357.03
2018-01-20T19:07:59.792Z,99364.89
2018-01-20T19:10:30.248Z,99362.25
2018-01-20T19:13:01.449Z,99363.78
2018-01-20T19:15:32.160Z,99365.30
2018-01-20T19:18:01.547Z,99373.55
2018-01-20T19:20:30.499Z,99374.91
2018-01-20T19:22:58.813Z,99381.81
2018-01-20T19:25:29.039Z,99384.28
2018-01-20T19:27:57.440Z,99392.25
2018-01-20T19:30:27.458Z,99391.34
2018-01-20T19:32:57.564Z,99397.20
2018-01-20T19:35:28.256Z,99388.53
2018-01-20T19:37:59.247Z,99398.13
2018-01-20T19:40:27.545Z,99402.70
2018-01-20T19:42:55.855Z,99401.77
2018-01-20T19:45:24.834Z,99404.79
2018-01-20T19:47:54.371Z,99411.37
2018-01-20T19:50:25.788Z,99410.84
2018-01-20T19:52:54.419Z,99416.69
2018-01-20T19:55:22.965Z,99421.09
2018-01-20T19:57:51.441Z,99425.59
2018-01-20T20:00:19.731Z,99427.33
2018-01-20T20:02:48.671Z,99427.98
2018-01-20T20:05:16.944Z,99431.53
2018-01-20T20:07:46.167Z,99435.55
2018-01-20T20:10:18.296Z,99434.16
2018-01-20T20:12:47.420Z,99435.72
2018-01-20T20:15:17.455Z,99438.23
2018-01-20T20:17:46.727Z,99444.56
2018-01-20T20:20:19.136Z,99448.72
2018-01-20T20:22:48.730Z,99450.03
2018-01-20T20:25:17.784Z,99456.23
2018-01-20T20:27:46.694Z,99455.45
2018-01-20T20:30:16.789Z,99457.23
2018-01-20T20:32:45.612Z,99461.55
2018-01-20T20:35:18.374Z,99457.78
2018-01-20T20:37:47.676Z,99459.94
2018-01-20T20:40:18.247Z,99465.19
2018-01-20T20:42:47.898Z,99464.19
2018-01-20T20:45:17.792Z,99473.33
2018-01-20T20:47:47.417Z,99476.17
2018-01-20T20:50:18.571Z,99486.42
2018-01-20T20:52:48.265Z,99485.11
2018-01-20T20:55:18.227Z,99490.41
2018-01-20T20:57:47.026Z,99491.13
2018-01-20T21:00:17.248Z,99496.18
2018-01-20T21:02:50.414Z,99499.92
2018-01-20T21:05:20.347Z,99503.47
2018-01-20T21:07:50.241Z,99498.27
2018-01-20T21:10:18.788Z,99502.08
2018-01-20T21:12:49.021Z,99505.63
2018-01-20T21:15:18.892Z,99498.07
2018-01-20T21:17:48.903Z,99497.65
2018-01-20T21:20:18.675Z,99503.28
2018-01-20T21:22:48.208Z,99508.29
2018-01-20T21:25:18.166Z,99514.69
2018-01-20T21:27:48.712Z,99516.66
2018-01-20T21:30:17.312Z,99522.67
2018-01-20T21:32:45.881Z,99521.09
2018-01-20T21:35:18.338Z,99530.26
2018-01-20T21:37:48.672Z,99531.14
2018-01-20T21:40:19.234Z,99539.67
2018-01-20T21:42:49.598Z,99546.20
2018-01-20T21:45:19.042Z,99552.36
2018-01-20T21:47:47.874Z,99559.52
2018-01-20T21:50:18.899Z,99562.16
2018-01-20T21:52:47.393Z,99567.69
2018-01-20T21:55:17.612Z,99573.89
2018-01-20T21:57:47.042Z,99575.55
2018-01-20T22:00:19.083Z,99589.30
2018-01-20T22:02:47.519Z,99587.05
2018-01-20T22:05:19.967Z,99587.67
2018-01-20T22:07:48.878Z,99593.27
2018-01-20T22:10:17.665Z,99596.67
2018-01-20T22:12:46.913Z,99587.89
2018-01-20T22:15:16.899Z,99599.28
2018-01-20T22:17:46.054Z,99596.66
2018-01-20T22:20:20.340Z,99603.63
2018-01-20T22:22:50.440Z,99604.75
2018-01-20T22:25:18.830Z,99616.77
2018-01-20T22:27:48.762Z,99615.88
2018-01-20T22:30:17.311Z,99618.89
2018-01-20T22:32:45.630Z,99623.74
2018-01-20T22:35:18.360Z,99634.44
2018-01-20T22:37:46.709Z,99641.16
2018-01-20T22:40:18.506Z,99641.45
2018-01-20T22:42:46.804Z,99649.77
2018-01-20T22:45:16.724Z,99663.42
2018-01-20T22:47:45.030Z,99673.78
2018-01-20T22:50:16.445Z,99677.84
2018-01-20T22:52:45.102Z,99679.97
2018-01-20T22:55:20.328Z,99638.94
2018-01-20T22:57:48.621Z,99689.34
2018-01-20T23:00:16.897Z,99695.05
2018-01-20T23:02:46.828Z,99698.02
2018-01-20T23:05:19.206Z,99703.08
2018-01-20T23:07:47.478Z,99708.83
2018-01-20T23:10:17.420Z,99714.81
2018-01-20T23:12:45.710Z,99722.33
2018-01-20T23:15:17.409Z,99723.13
2018-01-20T23:17:45.722Z,99732.76
2018-01-20T23:20:17.920Z,99738.50
2018-01-20T23:22:46.678Z,99749.41
2018-01-20T23:25:17.030Z,99752.56
2018-01-20T23:27:45.374Z,99753.88
2018-01-20T23:30:17.169Z,99759.21
2018-01-20T23:32:45.515Z,99761.19
2018-01-20T23:35:17.894Z,99767.84
2018-01-20T23:37:47.601Z,99767.27
2018-01-20T23:40:17.036Z,99770.06
2018-01-20T23:42:45.585Z,99781.44
2018-01-20T23:45:26.227Z,99797.77
2018-01-20T23:47:54.694Z,99797.06
2018-01-20T23:50:23.229Z,99805.37
2018-01-20T23:52:51.596Z,99809.81
2018-01-20T23:55:20.186Z,99813.89
2018-01-20T23:57:48.573Z,99813.48
